Allouez, Michigan
Current Conditions -  °F | °C
As of 11:30 AM on Thursday 29 Jan 2015 (Local Time) from KCMX Reporting Station
Overcast Overcast  
Wind Chill: 12°   Ceiling: 1400
Heat Index: 26°   Visibility: 10mi
Dew Point: 21°   Wind: 22mph
Humidity: 81%   Direction: 340°NNW
Pressure: 29.92"   Gusts: 32mph
Location:  47.29°N, 88.41°W
Report Text: KCMX 291630Z AUTO 34019G28KT 10SM OVC014 M03/M06 A2992 RMK AO2 PK WND 35028/1623 T10331061
Loading
Personal Weather Stations






























Interactive Weather Map New forecast layout! Learn more

10-Day Weather Forecast

Advertisements
Track Severe Weather on mobile